createdAt,value
2023-03-16T00:02:44.417Z,4.30
2023-03-16T00:07:36.115Z,3.80
2023-03-16T00:12:27.857Z,4.30
2023-03-16T00:17:20.785Z,4.10
2023-03-16T00:22:14.785Z,4.07
2023-03-16T00:27:06.454Z,3.63
2023-03-16T00:31:58.203Z,3.70
2023-03-16T00:36:49.981Z,3.40
2023-03-16T00:41:42.924Z,3.77
2023-03-16T00:46:34.729Z,4.17
2023-03-16T00:51:26.529Z,4.33
2023-03-16T00:56:18.444Z,3.30
2023-03-16T01:01:14.185Z,3.70
2023-03-16T01:06:11.846Z,4.10
2023-03-16T01:11:11.940Z,3.73
2023-03-16T01:16:04.144Z,4.47
2023-03-16T01:20:55.965Z,3.60
2023-03-16T01:25:53.058Z,3.53
2023-03-16T01:30:44.773Z,3.50
2023-03-16T01:35:36.535Z,3.97
2023-03-16T01:40:28.512Z,3.37
2023-03-16T01:45:58.126Z,3.17
2023-03-16T01:50:52.513Z,3.47
2023-03-16T01:55:44.659Z,3.57
2023-03-16T02:00:36.682Z,3.27
2023-03-16T02:05:58.731Z,3.30
2023-03-16T02:10:54.704Z,2.90
2023-03-16T02:15:47.900Z,2.80
2023-03-16T02:21:01.920Z,2.63
2023-03-16T02:26:12.459Z,2.53
2023-03-16T02:31:06.173Z,2.63
2023-03-16T02:35:58.477Z,2.60
2023-03-16T02:41:20.811Z,2.67
2023-03-16T02:46:21.647Z,2.50
2023-03-16T02:51:13.577Z,2.90
2023-03-16T02:56:05.687Z,3.07
2023-03-16T03:00:59.906Z,2.77
2023-03-16T03:05:51.597Z,2.67
2023-03-16T03:10:43.280Z,2.50
2023-03-16T03:15:35.795Z,2.50
2023-03-16T03:20:33.960Z,2.43
2023-03-16T03:25:25.821Z,2.20
2023-03-16T03:30:21.614Z,2.30
2023-03-16T03:35:14.832Z,2.10
2023-03-16T03:40:10.323Z,2.30
2023-03-16T03:45:02.229Z,2.10
2023-03-16T03:49:53.951Z,2.23
2023-03-16T03:54:45.984Z,2.33
2023-03-16T03:59:43.711Z,2.30
2023-03-16T04:05:00.969Z,2.87
2023-03-16T04:09:54.418Z,2.50
2023-03-16T04:14:54.490Z,2.60
2023-03-16T04:19:48.137Z,2.73
2023-03-16T04:24:44.871Z,2.67
2023-03-16T04:29:39.049Z,2.80
2023-03-16T04:34:31.706Z,3.07
2023-03-16T04:39:26.508Z,3.10
2023-03-16T04:44:19.729Z,2.87
2023-03-16T04:49:12.055Z,3.20
2023-03-16T04:54:07.686Z,2.87
2023-03-16T04:59:02.778Z,3.03
2023-03-16T05:04:00.167Z,3.23
2023-03-16T05:08:54.532Z,3.13
2023-03-16T05:13:46.429Z,3.60
2023-03-16T05:18:38.172Z,3.47
2023-03-16T05:23:31.584Z,3.43
2023-03-16T05:28:27.487Z,3.13
2023-03-16T05:33:26.279Z,3.20
2023-03-16T05:38:27.552Z,3.87
2023-03-16T05:43:21.715Z,4.07
2023-03-16T05:48:16.135Z,3.93
2023-03-16T05:53:11.538Z,4.03
2023-03-16T05:58:05.980Z,3.70
2023-03-16T06:03:00.095Z,3.63
2023-03-16T06:07:55.574Z,4.27
2023-03-16T06:12:49.921Z,3.87
2023-03-16T06:17:43.529Z,4.10
2023-03-16T06:22:35.369Z,4.00
2023-03-16T06:27:27.303Z,4.20
2023-03-16T06:32:42.182Z,4.43
2023-03-16T06:37:34.235Z,3.90
2023-03-16T06:42:31.325Z,3.90
2023-03-16T06:47:23.099Z,4.20
2023-03-16T06:52:15.001Z,3.87
2023-03-16T06:57:07.373Z,4.00
2023-03-16T07:01:59.068Z,4.10
2023-03-16T07:06:51.437Z,3.50
2023-03-16T07:11:43.438Z,4.03
2023-03-16T07:16:35.174Z,4.10
2023-03-16T07:21:29.342Z,3.77
2023-03-16T07:26:21.535Z,4.13
2023-03-16T07:31:18.381Z,4.37
2023-03-16T07:36:11.664Z,4.37
2023-03-16T07:41:09.960Z,4.60
2023-03-16T07:46:04.221Z,4.47
2023-03-16T07:50:56.154Z,4.10
2023-03-16T07:55:49.391Z,3.83
2023-03-16T08:00:42.764Z,3.97
2023-03-16T08:05:34.594Z,4.60
2023-03-16T08:10:35.887Z,4.70
2023-03-16T08:15:34.986Z,4.00
2023-03-16T08:20:34.331Z,4.57
2023-03-16T08:25:26.746Z,4.27
2023-03-16T08:30:27.323Z,4.47
2023-03-16T08:35:36.278Z,4.53
2023-03-16T08:40:29.667Z,3.93
2023-03-16T08:45:24.325Z,4.43
2023-03-16T08:50:16.329Z,3.83
2023-03-16T08:55:11.001Z,3.97
2023-03-16T09:00:08.815Z,3.33
2023-03-16T09:05:00.391Z,4.00
2023-03-16T09:09:52.731Z,4.07
2023-03-16T09:14:45.998Z,4.27
2023-03-16T09:19:56.290Z,3.90
2023-03-16T09:24:49.680Z,3.90
2023-03-16T09:29:42.941Z,4.23
2023-03-16T09:34:34.763Z,4.53
2023-03-16T09:39:26.370Z,4.63
2023-03-16T09:44:29.288Z,4.30
2023-03-16T09:49:26.020Z,4.57
2023-03-16T09:54:42.303Z,4.40
2023-03-16T09:59:34.844Z,4.63
2023-03-16T10:04:41.488Z,4.33
2023-03-16T10:09:53.450Z,5.13
2023-03-16T10:14:57.718Z,4.70
2023-03-16T10:20:00.079Z,4.40
2023-03-16T10:24:57.968Z,4.40
2023-03-16T10:29:49.904Z,4.50
2023-03-16T10:34:45.528Z,4.63
2023-03-16T10:39:42.927Z,5.27
2023-03-16T10:44:40.319Z,4.50
2023-03-16T10:49:40.380Z,4.77
2023-03-16T10:54:39.170Z,4.40
2023-03-16T10:59:34.418Z,4.90
2023-03-16T11:04:31.569Z,5.03
2023-03-16T11:09:33.159Z,4.73
2023-03-16T11:14:29.055Z,4.53
2023-03-16T11:19:26.049Z,4.40
2023-03-16T11:24:34.722Z,4.10
2023-03-16T11:29:52.748Z,4.07
2023-03-16T11:34:45.013Z,3.97
2023-03-16T11:39:42.761Z,4.40
2023-03-16T11:44:42.110Z,4.70
2023-03-16T11:49:44.458Z,3.30
2023-03-16T11:54:42.386Z,3.53
2023-03-16T12:00:01.497Z,3.33
2023-03-16T12:05:13.494Z,3.40
2023-03-16T12:10:24.100Z,3.30
2023-03-16T12:15:38.452Z,3.40
2023-03-16T12:20:41.829Z,2.93
2023-03-16T12:25:38.160Z,2.80
2023-03-16T12:30:50.994Z,2.67
2023-03-16T12:36:10.651Z,3.03
2023-03-16T12:41:39.677Z,3.00
2023-03-16T12:46:37.368Z,2.80
2023-03-16T12:51:37.260Z,2.80
2023-03-16T12:56:44.173Z,2.57
2023-03-16T13:01:43.743Z,2.70
2023-03-16T13:06:36.719Z,2.30
2023-03-16T13:11:28.687Z,2.67
2023-03-16T13:16:32.324Z,2.40
2023-03-16T13:21:39.866Z,2.60
2023-03-16T13:26:43.788Z,2.57
2023-03-16T13:31:39.036Z,2.10
2023-03-16T13:36:32.130Z,2.43
2023-03-16T13:41:24.837Z,1.67
2023-03-16T13:46:22.402Z,2.13
2023-03-16T13:51:20.921Z,1.90
2023-03-16T13:56:19.320Z,1.93
2023-03-16T14:01:20.648Z,1.60
2023-03-16T14:06:30.481Z,1.80
2023-03-16T14:11:22.480Z,2.20
2023-03-16T14:16:19.892Z,2.57
2023-03-16T14:21:22.942Z,2.10
2023-03-16T14:26:16.749Z,2.43
2023-03-16T14:31:13.055Z,3.00
2023-03-16T14:36:19.661Z,2.17
2023-03-16T14:41:21.501Z,2.90
2023-03-16T14:46:19.037Z,2.37
2023-03-16T14:51:14.366Z,2.17
2023-03-16T14:56:13.516Z,1.97
2023-03-16T15:01:06.373Z,2.80
2023-03-16T15:05:58.075Z,2.27
2023-03-16T15:10:50.865Z,2.67
2023-03-16T15:15:43.020Z,2.43
2023-03-16T15:20:41.379Z,2.30
2023-03-16T15:25:46.696Z,2.20
2023-03-16T15:30:39.165Z,2.40
2023-03-16T15:35:30.949Z,2.63
2023-03-16T15:40:26.232Z,2.30
2023-03-16T15:45:21.346Z,2.80
2023-03-16T15:50:15.648Z,3.07
2023-03-16T15:55:22.603Z,2.90
2023-03-16T16:00:27.239Z,3.07
2023-03-16T16:05:19.059Z,3.53
2023-03-16T16:10:14.282Z,3.10
2023-03-16T16:15:29.677Z,2.97
2023-03-16T16:20:23.262Z,2.67
2023-03-16T16:25:15.643Z,2.90
2023-03-16T16:30:27.505Z,3.10
2023-03-16T16:35:22.096Z,2.97
2023-03-16T16:40:17.299Z,2.90
2023-03-16T16:45:27.651Z,3.23
2023-03-16T16:50:23.168Z,3.23
2023-03-16T16:55:15.152Z,3.50
2023-03-16T17:00:17.470Z,3.67
2023-03-16T17:05:21.958Z,3.43
2023-03-16T17:10:17.411Z,3.77
2023-03-16T17:15:29.836Z,3.93
2023-03-16T17:20:25.480Z,3.30
2023-03-16T17:25:17.381Z,3.40
2023-03-16T17:30:25.439Z,3.73
2023-03-16T17:35:18.047Z,3.67
2023-03-16T17:40:21.511Z,3.53
2023-03-16T17:45:19.035Z,3.10
2023-03-16T17:50:31.482Z,3.67
2023-03-16T17:55:24.788Z,3.20
2023-03-16T18:00:26.058Z,2.97
2023-03-16T18:05:27.183Z,3.17
2023-03-16T18:10:21.899Z,2.63
2023-03-16T18:15:20.997Z,2.90
2023-03-16T18:20:27.698Z,2.90
2023-03-16T18:25:39.237Z,3.03
2023-03-16T18:30:32.867Z,2.77
2023-03-16T18:35:24.916Z,2.70
2023-03-16T18:40:18.733Z,3.17
2023-03-16T18:45:12.544Z,3.20
2023-03-16T18:50:04.742Z,2.70
2023-03-16T18:54:58.244Z,2.57
2023-03-16T18:59:50.973Z,2.87
2023-03-16T19:04:42.994Z,2.90
2023-03-16T19:09:35.849Z,2.73
2023-03-16T19:14:32.091Z,2.90
2023-03-16T19:19:24.900Z,2.87
2023-03-16T19:24:34.291Z,2.80
2023-03-16T19:29:34.421Z,3.00
2023-03-16T19:34:26.595Z,2.83
2023-03-16T19:39:18.317Z,2.60
2023-03-16T19:44:23.718Z,2.60
2023-03-16T19:49:22.866Z,2.90
2023-03-16T19:54:33.745Z,2.93
2023-03-16T19:59:31.155Z,3.37
2023-03-16T20:04:25.899Z,3.10
2023-03-16T20:09:18.275Z,3.07
2023-03-16T20:14:26.702Z,3.40
2023-03-16T20:19:20.880Z,3.50
2023-03-16T20:24:19.218Z,3.83
2023-03-16T20:29:31.121Z,2.93
2023-03-16T20:34:28.831Z,3.13
2023-03-16T20:39:21.002Z,3.27
2023-03-16T20:44:15.535Z,3.43
2023-03-16T20:49:31.406Z,3.20
2023-03-16T20:54:23.133Z,3.20
2023-03-16T20:59:23.893Z,3.10
2023-03-16T21:04:25.648Z,3.37
2023-03-16T21:09:18.753Z,3.50
2023-03-16T21:14:17.009Z,3.30
2023-03-16T21:19:14.726Z,2.97
2023-03-16T21:24:06.761Z,3.37
2023-03-16T21:29:02.014Z,2.90
2023-03-16T21:33:54.913Z,2.60
2023-03-16T21:38:47.788Z,3.07
2023-03-16T21:43:39.754Z,2.77
2023-03-16T21:48:41.587Z,2.90
2023-03-16T21:53:33.402Z,3.00
2023-03-16T21:58:25.276Z,3.27
2023-03-16T22:03:24.867Z,2.50
2023-03-16T22:08:23.124Z,2.67
2023-03-16T22:13:14.816Z,2.90
2023-03-16T22:18:11.232Z,2.70
2023-03-16T22:23:02.952Z,2.50
2023-03-16T22:27:54.694Z,2.63
2023-03-16T22:32:49.413Z,2.70
2023-03-16T22:37:41.358Z,2.50
2023-03-16T22:42:38.589Z,2.53
2023-03-16T22:47:32.584Z,2.50
2023-03-16T22:52:32.677Z,2.50
2023-03-16T22:57:24.642Z,2.40
2023-03-16T23:02:20.895Z,2.30
2023-03-16T23:07:13.993Z,2.60
2023-03-16T23:12:13.728Z,2.40
2023-03-16T23:17:17.657Z,2.10
2023-03-16T23:22:11.045Z,2.00
2023-03-16T23:27:03.906Z,2.37
2023-03-16T23:31:56.598Z,2.23
2023-03-16T23:36:49.550Z,2.23
2023-03-16T23:41:43.933Z,1.83
2023-03-16T23:46:35.638Z,2.10
2023-03-16T23:51:33.432Z,2.30
2023-03-16T23:56:27.019Z,2.20
